AUA8PM LOWI-LOWW
Flight info
| Callsign | AUA8PM |
|---|---|
| Flight time | 0h 57m |
| Altitude | 23000 |
| Route | RTT DCT NEMAL NEMAL2W |
| Aircraft | DH8D/M-SDE2E3FGRY/H |
Departure
| Time | 2026-05-07 17:10 |
|---|---|
| Airport | Innsbruck Airport (LOWI) |
Arrival
| Time | 2026-05-07 18:08 |
|---|---|
| Airport | Vienna International Airport (LOWW) |
| Time | Latitude | Longitude | Altitude | Speed | Heading |
|---|---|---|---|---|---|
| 2026-05-07 16:50 | 47.25834 | 11.35118 | 1916 ft | 0 kts | 171° |
| 2026-05-07 17:02 | 47.25833 | 11.35118 | 1916 ft | 0 kts | 171° |
| 2026-05-07 17:02 | 47.25838 | 11.35116 | 1916 ft | 2 kts | 171° |
| 2026-05-07 17:03 | 47.25853 | 11.35113 | 1916 ft | 2 kts | 171° |
| 2026-05-07 17:03 | 47.25867 | 11.35111 | 1916 ft | 2 kts | 186° |
| 2026-05-07 17:03 | 47.25881 | 11.35120 | 1916 ft | 2 kts | 228° |
| 2026-05-07 17:03 | 47.25887 | 11.35136 | 1915 ft | 1 kts | 261° |
| 2026-05-07 17:04 | 47.25887 | 11.35139 | 1915 ft | 0 kts | 261° |
| 2026-05-07 17:05 | 47.25886 | 11.35130 | 1915 ft | 4 kts | 260° |
| 2026-05-07 17:05 | 47.25880 | 11.35078 | 1916 ft | 4 kts | 260° |
| 2026-05-07 17:05 | 47.25875 | 11.35033 | 1916 ft | 3 kts | 260° |
| 2026-05-07 17:06 | 47.25867 | 11.34969 | 1916 ft | 7 kts | 262° |
| 2026-05-07 17:06 | 47.25855 | 11.34846 | 1917 ft | 16 kts | 261° |
| 2026-05-07 17:06 | 47.25834 | 11.34654 | 1918 ft | 18 kts | 261° |
| 2026-05-07 17:06 | 47.25816 | 11.34478 | 1918 ft | 16 kts | 261° |
| 2026-05-07 17:07 | 47.25800 | 11.34326 | 1919 ft | 13 kts | 259° |
| 2026-05-07 17:07 | 47.25784 | 11.34197 | 1919 ft | 12 kts | 262° |
| 2026-05-07 17:07 | 47.25773 | 11.34082 | 1920 ft | 10 kts | 262° |
| 2026-05-07 17:07 | 47.25776 | 11.33970 | 1920 ft | 15 kts | 284° |
| 2026-05-07 17:08 | 47.25851 | 11.33792 | 1921 ft | 19 kts | 307° |
| 2026-05-07 17:08 | 47.25923 | 11.33644 | 1921 ft | 16 kts | 296° |
| 2026-05-07 17:08 | 47.25921 | 11.33484 | 1922 ft | 16 kts | 261° |
| 2026-05-07 17:08 | 47.25902 | 11.33307 | 1923 ft | 17 kts | 260° |
| 2026-05-07 17:09 | 47.25857 | 11.33187 | 1923 ft | 12 kts | 215° |
| 2026-05-07 17:09 | 47.25863 | 11.33109 | 1924 ft | 8 kts | 352° |
| 2026-05-07 17:09 | 47.25885 | 11.33142 | 1923 ft | 0 kts | 79° |
| 2026-05-07 17:09 | 47.25889 | 11.33177 | 1923 ft | 24 kts | 81° |
| 2026-05-07 17:10 | 47.25965 | 11.33889 | 1921 ft | 110 kts | 80° |
| 2026-05-07 17:10 | 47.26113 | 11.35300 | 1964 ft | 155 kts | 78° |
| 2026-05-07 17:10 | 47.26299 | 11.36919 | 2384 ft | 167 kts | 78° |
| 2026-05-07 17:10 | 47.26506 | 11.38639 | 2845 ft | 177 kts | 78° |
| 2026-05-07 17:11 | 47.26727 | 11.40476 | 3357 ft | 185 kts | 77° |
| 2026-05-07 17:11 | 47.26980 | 11.42345 | 3955 ft | 187 kts | 76° |
| 2026-05-07 17:11 | 47.27235 | 11.44224 | 4557 ft | 189 kts | 77° |
| 2026-05-07 17:11 | 47.27540 | 11.46095 | 5143 ft | 187 kts | 72° |
| 2026-05-07 17:12 | 47.27899 | 11.47919 | 5693 ft | 187 kts | 71° |
| 2026-05-07 17:12 | 47.28255 | 11.49736 | 6228 ft | 186 kts | 71° |
| 2026-05-07 17:12 | 47.28609 | 11.51563 | 6756 ft | 186 kts | 72° |
| 2026-05-07 17:12 | 47.28962 | 11.53397 | 7280 ft | 186 kts | 72° |
| 2026-05-07 17:13 | 47.29314 | 11.55240 | 7797 ft | 186 kts | 72° |
| 2026-05-07 17:13 | 47.29655 | 11.57038 | 8298 ft | 186 kts | 72° |
| 2026-05-07 17:13 | 47.30002 | 11.58860 | 8792 ft | 186 kts | 72° |
| 2026-05-07 17:13 | 47.30351 | 11.60706 | 9269 ft | 186 kts | 72° |
| 2026-05-07 17:14 | 47.30697 | 11.62541 | 9708 ft | 188 kts | 72° |
| 2026-05-07 17:14 | 47.31061 | 11.64404 | 9959 ft | 199 kts | 67° |
| 2026-05-07 17:14 | 47.31758 | 11.66268 | 10152 ft | 211 kts | 53° |
| 2026-05-07 17:14 | 47.32638 | 11.68078 | 10442 ft | 221 kts | 52° |
| 2026-05-07 17:15 | 47.33554 | 11.69954 | 10782 ft | 227 kts | 52° |
| 2026-05-07 17:15 | 47.34468 | 11.71849 | 11152 ft | 231 kts | 53° |
| 2026-05-07 17:15 | 47.35411 | 11.73819 | 11550 ft | 234 kts | 53° |
| 2026-05-07 17:15 | 47.36342 | 11.75767 | 11949 ft | 236 kts | 53° |
| 2026-05-07 17:16 | 47.37295 | 11.77770 | 12344 ft | 237 kts | 53° |
| 2026-05-07 17:16 | 47.38240 | 11.79764 | 12724 ft | 239 kts | 53° |
| 2026-05-07 17:16 | 47.39202 | 11.81808 | 13100 ft | 240 kts | 53° |
| 2026-05-07 17:16 | 47.40042 | 11.83926 | 13447 ft | 242 kts | 63° |
| 2026-05-07 17:17 | 47.40738 | 11.86193 | 13799 ft | 243 kts | 65° |
| 2026-05-07 17:17 | 47.41417 | 11.88451 | 14138 ft | 244 kts | 64° |
| 2026-05-07 17:17 | 47.42108 | 11.90750 | 14490 ft | 244 kts | 64° |
| 2026-05-07 17:17 | 47.42795 | 11.93026 | 14833 ft | 245 kts | 64° |
| 2026-05-07 17:18 | 47.43498 | 11.95328 | 15157 ft | 245 kts | 63° |
| 2026-05-07 17:18 | 47.44232 | 11.97614 | 15475 ft | 245 kts | 62° |
| 2026-05-07 17:18 | 47.44966 | 11.99887 | 15801 ft | 245 kts | 62° |
| 2026-05-07 17:18 | 47.45696 | 12.02152 | 16105 ft | 246 kts | 62° |
| 2026-05-07 17:19 | 47.46428 | 12.04429 | 16405 ft | 246 kts | 62° |
| 2026-05-07 17:19 | 47.47170 | 12.06745 | 16694 ft | 246 kts | 62° |
| 2026-05-07 17:19 | 47.47901 | 12.09024 | 16974 ft | 246 kts | 62° |
| 2026-05-07 17:19 | 47.48642 | 12.11328 | 17264 ft | 246 kts | 62° |
| 2026-05-07 17:20 | 47.49368 | 12.13598 | 17545 ft | 247 kts | 62° |
| 2026-05-07 17:20 | 47.50109 | 12.15915 | 17820 ft | 247 kts | 62° |
| 2026-05-07 17:20 | 47.50843 | 12.18210 | 18088 ft | 247 kts | 62° |
| 2026-05-07 17:20 | 47.51580 | 12.20509 | 18342 ft | 248 kts | 62° |
| 2026-05-07 17:21 | 47.52310 | 12.22798 | 18592 ft | 248 kts | 62° |
| 2026-05-07 17:21 | 47.53048 | 12.25116 | 18842 ft | 248 kts | 62° |
| 2026-05-07 17:21 | 47.53774 | 12.27399 | 19078 ft | 248 kts | 62° |
| 2026-05-07 17:21 | 47.54509 | 12.29710 | 19312 ft | 248 kts | 62° |
| 2026-05-07 17:22 | 47.55238 | 12.32006 | 19529 ft | 248 kts | 62° |
| 2026-05-07 17:22 | 47.55980 | 12.34341 | 19746 ft | 248 kts | 62° |
| 2026-05-07 17:22 | 47.56704 | 12.36625 | 19961 ft | 248 kts | 62° |
| 2026-05-07 17:22 | 47.57444 | 12.38960 | 20176 ft | 248 kts | 62° |
| 2026-05-07 17:23 | 47.58173 | 12.41267 | 20393 ft | 248 kts | 62° |
| 2026-05-07 17:23 | 47.58907 | 12.43590 | 20602 ft | 248 kts | 62° |
| 2026-05-07 17:23 | 47.59638 | 12.45900 | 20804 ft | 249 kts | 62° |
| 2026-05-07 17:23 | 47.60382 | 12.48257 | 21001 ft | 249 kts | 62° |
| 2026-05-07 17:24 | 47.61111 | 12.50568 | 21186 ft | 249 kts | 62° |
| 2026-05-07 17:24 | 47.61840 | 12.52874 | 21377 ft | 249 kts | 62° |
| 2026-05-07 17:24 | 47.62573 | 12.55204 | 21559 ft | 249 kts | 62° |
| 2026-05-07 17:24 | 47.63305 | 12.57536 | 21727 ft | 249 kts | 62° |
| 2026-05-07 17:25 | 47.64032 | 12.59853 | 21881 ft | 248 kts | 62° |
| 2026-05-07 17:25 | 47.64753 | 12.62148 | 22033 ft | 248 kts | 62° |
| 2026-05-07 17:25 | 47.65489 | 12.64493 | 22193 ft | 248 kts | 62° |
| 2026-05-07 17:25 | 47.66208 | 12.66791 | 22332 ft | 248 kts | 63° |
| 2026-05-07 17:26 | 47.66943 | 12.69137 | 22464 ft | 248 kts | 63° |
| 2026-05-07 17:26 | 47.67665 | 12.71448 | 22586 ft | 249 kts | 63° |
| 2026-05-07 17:26 | 47.68396 | 12.73786 | 22712 ft | 249 kts | 63° |
| 2026-05-07 17:26 | 47.69121 | 12.76106 | 22839 ft | 249 kts | 63° |
| 2026-05-07 17:27 | 47.69844 | 12.78424 | 22959 ft | 249 kts | 63° |
| 2026-05-07 17:27 | 47.70581 | 12.80787 | 23008 ft | 252 kts | 63° |
| 2026-05-07 17:27 | 47.71319 | 12.83154 | 23028 ft | 257 kts | 63° |
| 2026-05-07 17:27 | 47.72080 | 12.85597 | 23034 ft | 262 kts | 63° |
| 2026-05-07 17:28 | 47.72847 | 12.88060 | 23039 ft | 267 kts | 63° |
| 2026-05-07 17:28 | 47.73638 | 12.90603 | 23028 ft | 273 kts | 63° |
| 2026-05-07 17:28 | 47.74439 | 12.93176 | 23024 ft | 279 kts | 63° |
| 2026-05-07 17:28 | 47.75259 | 12.95818 | 23025 ft | 284 kts | 63° |
| 2026-05-07 17:29 | 47.76091 | 12.98502 | 23024 ft | 289 kts | 63° |
| 2026-05-07 17:29 | 47.76947 | 13.01265 | 23028 ft | 295 kts | 63° |
| 2026-05-07 17:29 | 47.77806 | 13.04044 | 23028 ft | 300 kts | 63° |
| 2026-05-07 17:29 | 47.78685 | 13.06889 | 23028 ft | 306 kts | 63° |
| 2026-05-07 17:30 | 47.79570 | 13.09756 | 23028 ft | 311 kts | 63° |
| 2026-05-07 17:30 | 47.80477 | 13.12699 | 23029 ft | 316 kts | 63° |
| 2026-05-07 17:30 | 47.81404 | 13.15713 | 23031 ft | 321 kts | 63° |
| 2026-05-07 17:30 | 47.82336 | 13.18749 | 23034 ft | 326 kts | 63° |
| 2026-05-07 17:31 | 47.83285 | 13.21841 | 23033 ft | 330 kts | 64° |
| 2026-05-07 17:31 | 47.84237 | 13.24948 | 23039 ft | 333 kts | 63° |
| 2026-05-07 17:31 | 47.85197 | 13.28086 | 23039 ft | 337 kts | 64° |
| 2026-05-07 17:31 | 47.86160 | 13.31239 | 23033 ft | 340 kts | 64° |
| 2026-05-07 17:32 | 47.87139 | 13.34446 | 23036 ft | 342 kts | 64° |
| 2026-05-07 17:32 | 47.88125 | 13.37685 | 23033 ft | 344 kts | 64° |
| 2026-05-07 17:32 | 47.89126 | 13.40970 | 23034 ft | 347 kts | 64° |
| 2026-05-07 17:32 | 47.89779 | 13.43120 | 23036 ft | 348 kts | 64° |
| 2026-05-07 17:33 | 47.91119 | 13.47543 | 23030 ft | 351 kts | 64° |
| 2026-05-07 17:33 | 47.91796 | 13.51016 | 23012 ft | 353 kts | 84° |
| 2026-05-07 17:33 | 47.91844 | 13.54682 | 23013 ft | 354 kts | 90° |
| 2026-05-07 17:33 | 47.91824 | 13.58354 | 23011 ft | 355 kts | 90° |
| 2026-05-07 17:34 | 47.91799 | 13.61990 | 23013 ft | 356 kts | 90° |
| 2026-05-07 17:34 | 47.91774 | 13.65569 | 23008 ft | 357 kts | 91° |
| 2026-05-07 17:34 | 47.91751 | 13.69201 | 23015 ft | 356 kts | 91° |
| 2026-05-07 17:34 | 47.91728 | 13.72884 | 23016 ft | 357 kts | 91° |
| 2026-05-07 17:35 | 47.91704 | 13.76608 | 23001 ft | 357 kts | 91° |
| 2026-05-07 17:35 | 47.91679 | 13.80293 | 23006 ft | 358 kts | 91° |
| 2026-05-07 17:35 | 47.91655 | 13.83996 | 23011 ft | 358 kts | 91° |
| 2026-05-07 17:35 | 47.91629 | 13.87698 | 23014 ft | 358 kts | 91° |
| 2026-05-07 17:36 | 47.91601 | 13.91377 | 23014 ft | 358 kts | 91° |
| 2026-05-07 17:36 | 47.91574 | 13.95119 | 23015 ft | 358 kts | 91° |
| 2026-05-07 17:36 | 47.91548 | 13.98824 | 23011 ft | 359 kts | 91° |
| 2026-05-07 17:36 | 47.91520 | 14.02521 | 23010 ft | 359 kts | 92° |
| 2026-05-07 17:37 | 47.91489 | 14.06238 | 23010 ft | 359 kts | 92° |
| 2026-05-07 17:37 | 47.91458 | 14.09936 | 23015 ft | 359 kts | 92° |
| 2026-05-07 17:37 | 47.91425 | 14.13629 | 23015 ft | 359 kts | 92° |
| 2026-05-07 17:37 | 47.91391 | 14.17351 | 23012 ft | 359 kts | 92° |
| 2026-05-07 17:38 | 47.91356 | 14.21040 | 23010 ft | 359 kts | 92° |
| 2026-05-07 17:38 | 47.91320 | 14.24775 | 23013 ft | 358 kts | 92° |
| 2026-05-07 17:38 | 47.91283 | 14.28468 | 23014 ft | 358 kts | 92° |
| 2026-05-07 17:38 | 47.91244 | 14.32186 | 23012 ft | 357 kts | 92° |
| 2026-05-07 17:39 | 47.91205 | 14.35838 | 23014 ft | 356 kts | 92° |
| 2026-05-07 17:39 | 47.91164 | 14.39561 | 23008 ft | 356 kts | 92° |
| 2026-05-07 17:39 | 47.91124 | 14.43249 | 23007 ft | 356 kts | 92° |
| 2026-05-07 17:39 | 47.91084 | 14.46903 | 23012 ft | 355 kts | 92° |
| 2026-05-07 17:40 | 47.91040 | 14.50602 | 23010 ft | 355 kts | 93° |
| 2026-05-07 17:40 | 47.90994 | 14.54258 | 23007 ft | 354 kts | 93° |
| 2026-05-07 17:40 | 47.90948 | 14.57886 | 23012 ft | 353 kts | 93° |
| 2026-05-07 17:40 | 47.90900 | 14.61543 | 23008 ft | 353 kts | 93° |
| 2026-05-07 17:41 | 47.90854 | 14.65007 | 22999 ft | 352 kts | 94° |
| 2026-05-07 17:41 | 47.90800 | 14.68835 | 23000 ft | 351 kts | 94° |
| 2026-05-07 17:41 | 47.90749 | 14.72510 | 22992 ft | 349 kts | 93° |
| 2026-05-07 17:41 | 47.90699 | 14.76101 | 22998 ft | 349 kts | 94° |
| 2026-05-07 17:42 | 47.90645 | 14.79770 | 23002 ft | 349 kts | 94° |
| 2026-05-07 17:42 | 47.90592 | 14.83379 | 23004 ft | 349 kts | 94° |
| 2026-05-07 17:42 | 47.90538 | 14.86953 | 23008 ft | 348 kts | 94° |
| 2026-05-07 17:42 | 47.90482 | 14.90555 | 22958 ft | 349 kts | 94° |
| 2026-05-07 17:43 | 47.90422 | 14.94251 | 22573 ft | 359 kts | 94° |
| 2026-05-07 17:43 | 47.90362 | 14.97968 | 22086 ft | 359 kts | 93° |
| 2026-05-07 17:43 | 47.90306 | 15.01647 | 21591 ft | 353 kts | 93° |
| 2026-05-07 17:43 | 47.90248 | 15.05292 | 21086 ft | 348 kts | 93° |
| 2026-05-07 17:44 | 47.90189 | 15.08865 | 20603 ft | 345 kts | 94° |
| 2026-05-07 17:44 | 47.90129 | 15.12401 | 20128 ft | 343 kts | 93° |
| 2026-05-07 17:44 | 47.90068 | 15.15954 | 19634 ft | 343 kts | 93° |
| 2026-05-07 17:44 | 47.90004 | 15.19514 | 19153 ft | 342 kts | 93° |
| 2026-05-07 17:45 | 47.89941 | 15.23018 | 18662 ft | 341 kts | 93° |
| 2026-05-07 17:45 | 47.89874 | 15.26573 | 18191 ft | 340 kts | 92° |
| 2026-05-07 17:45 | 47.89809 | 15.30069 | 17712 ft | 340 kts | 92° |
| 2026-05-07 17:45 | 47.89742 | 15.33556 | 17230 ft | 339 kts | 92° |
| 2026-05-07 17:46 | 47.89674 | 15.37028 | 17038 ft | 329 kts | 92° |
| 2026-05-07 17:46 | 47.89610 | 15.40359 | 16986 ft | 317 kts | 92° |
| 2026-05-07 17:46 | 47.89548 | 15.43698 | 16475 ft | 326 kts | 91° |
| 2026-05-07 17:46 | 47.89478 | 15.47041 | 16134 ft | 324 kts | 92° |
| 2026-05-07 17:47 | 47.89142 | 15.50294 | 15872 ft | 319 kts | 103° |
| 2026-05-07 17:47 | 47.88612 | 15.53481 | 15606 ft | 315 kts | 104° |
| 2026-05-07 17:47 | 47.88083 | 15.56599 | 15360 ft | 312 kts | 104° |
| 2026-05-07 17:47 | 47.87548 | 15.59750 | 15109 ft | 310 kts | 103° |
| 2026-05-07 17:48 | 47.87027 | 15.62828 | 14857 ft | 309 kts | 104° |
| 2026-05-07 17:48 | 47.86507 | 15.65847 | 14635 ft | 308 kts | 104° |
| 2026-05-07 17:48 | 47.85970 | 15.68963 | 14387 ft | 307 kts | 104° |
| 2026-05-07 17:48 | 47.85442 | 15.72042 | 14139 ft | 306 kts | 104° |
| 2026-05-07 17:49 | 47.84920 | 15.75094 | 13894 ft | 305 kts | 104° |
| 2026-05-07 17:49 | 47.84396 | 15.78167 | 13664 ft | 305 kts | 104° |
| 2026-05-07 17:49 | 47.83877 | 15.81213 | 13421 ft | 305 kts | 104° |
| 2026-05-07 17:49 | 47.83357 | 15.84264 | 13176 ft | 304 kts | 104° |
| 2026-05-07 17:50 | 47.82836 | 15.87326 | 12944 ft | 303 kts | 103° |
| 2026-05-07 17:50 | 47.82323 | 15.90332 | 12730 ft | 302 kts | 103° |
| 2026-05-07 17:50 | 47.82086 | 15.93357 | 12658 ft | 290 kts | 86° |
| 2026-05-07 17:50 | 47.82281 | 15.96307 | 12593 ft | 285 kts | 81° |
| 2026-05-07 17:51 | 47.82523 | 15.99241 | 12457 ft | 282 kts | 81° |
| 2026-05-07 17:51 | 47.82769 | 16.02155 | 12338 ft | 284 kts | 81° |
| 2026-05-07 17:51 | 47.83019 | 16.05048 | 12209 ft | 285 kts | 81° |
| 2026-05-07 17:51 | 47.83273 | 16.07981 | 12083 ft | 286 kts | 81° |
| 2026-05-07 17:52 | 47.83529 | 16.10905 | 11957 ft | 288 kts | 81° |
| 2026-05-07 17:52 | 47.83789 | 16.13885 | 11850 ft | 293 kts | 81° |
| 2026-05-07 17:52 | 47.84051 | 16.16962 | 11740 ft | 298 kts | 81° |
| 2026-05-07 17:52 | 47.84310 | 16.20044 | 11619 ft | 302 kts | 81° |
| 2026-05-07 17:53 | 47.84584 | 16.23169 | 11482 ft | 306 kts | 81° |
| 2026-05-07 17:53 | 47.84864 | 16.26379 | 11374 ft | 309 kts | 81° |
| 2026-05-07 17:53 | 47.85142 | 16.29582 | 11253 ft | 310 kts | 81° |
| 2026-05-07 17:53 | 47.85418 | 16.32757 | 11127 ft | 309 kts | 81° |
| 2026-05-07 17:54 | 47.85692 | 16.35946 | 11003 ft | 308 kts | 81° |
| 2026-05-07 17:54 | 47.85961 | 16.39073 | 10874 ft | 307 kts | 81° |
| 2026-05-07 17:54 | 47.86232 | 16.42237 | 10748 ft | 306 kts | 81° |
| 2026-05-07 17:54 | 47.86498 | 16.45352 | 10625 ft | 305 kts | 81° |
| 2026-05-07 17:55 | 47.86785 | 16.48526 | 10486 ft | 304 kts | 78° |
| 2026-05-07 17:55 | 47.87536 | 16.51455 | 10355 ft | 301 kts | 60° |
| 2026-05-07 17:55 | 47.88589 | 16.54165 | 10239 ft | 300 kts | 58° |
| 2026-05-07 17:55 | 47.89648 | 16.56878 | 10112 ft | 300 kts | 58° |
| 2026-05-07 17:56 | 47.90701 | 16.59558 | 10004 ft | 299 kts | 58° |
| 2026-05-07 17:56 | 47.91738 | 16.62210 | 9971 ft | 297 kts | 59° |
| 2026-05-07 17:56 | 47.92776 | 16.64874 | 9964 ft | 296 kts | 59° |
| 2026-05-07 17:56 | 47.93763 | 16.67412 | 9959 ft | 294 kts | 59° |
| 2026-05-07 17:57 | 47.94794 | 16.70074 | 9965 ft | 290 kts | 59° |
| 2026-05-07 17:57 | 47.95467 | 16.71815 | 9966 ft | 290 kts | 59° |
| 2026-05-07 17:57 | 47.97301 | 16.74647 | 9956 ft | 285 kts | 26° |
| 2026-05-07 17:57 | 47.99224 | 16.75152 | 9982 ft | 284 kts | 357° |
| 2026-05-07 17:58 | 48.01207 | 16.74711 | 9973 ft | 285 kts | 350° |
| 2026-05-07 17:58 | 48.03136 | 16.74123 | 9968 ft | 285 kts | 348° |
| 2026-05-07 17:58 | 48.05067 | 16.73461 | 9963 ft | 285 kts | 347° |
| 2026-05-07 17:58 | 48.07019 | 16.72746 | 9752 ft | 288 kts | 347° |
| 2026-05-07 17:59 | 48.08927 | 16.72006 | 9491 ft | 281 kts | 346° |
| 2026-05-07 17:59 | 48.10794 | 16.71261 | 9154 ft | 277 kts | 346° |
| 2026-05-07 17:59 | 48.12590 | 16.70530 | 8734 ft | 277 kts | 345° |
| 2026-05-07 17:59 | 48.14428 | 16.69768 | 8249 ft | 274 kts | 344° |
| 2026-05-07 18:00 | 48.16262 | 16.68995 | 7740 ft | 268 kts | 344° |
| 2026-05-07 18:00 | 48.18036 | 16.68246 | 7292 ft | 260 kts | 344° |
| 2026-05-07 18:00 | 48.19748 | 16.67516 | 6837 ft | 254 kts | 344° |
| 2026-05-07 18:00 | 48.21447 | 16.66813 | 6379 ft | 249 kts | 345° |
| 2026-05-07 18:01 | 48.23090 | 16.66174 | 5924 ft | 244 kts | 345° |
| 2026-05-07 18:01 | 48.24712 | 16.65556 | 5469 ft | 240 kts | 345° |
| 2026-05-07 18:01 | 48.26317 | 16.64947 | 5016 ft | 237 kts | 346° |
| 2026-05-07 18:01 | 48.27895 | 16.64330 | 4568 ft | 234 kts | 346° |
| 2026-05-07 18:02 | 48.31002 | 16.62708 | 3733 ft | 235 kts | 322° |
| 2026-05-07 18:02 | 48.31958 | 16.60803 | 3539 ft | 228 kts | 291° |
| 2026-05-07 18:02 | 48.32122 | 16.58480 | 3410 ft | 226 kts | 262° |
| 2026-05-07 18:03 | 48.31731 | 16.56176 | 3298 ft | 227 kts | 249° |
| 2026-05-07 18:03 | 48.30938 | 16.54136 | 3144 ft | 229 kts | 230° |
| 2026-05-07 18:03 | 48.29823 | 16.52385 | 2965 ft | 233 kts | 226° |
| 2026-05-07 18:03 | 48.28669 | 16.50645 | 2811 ft | 234 kts | 221° |
| 2026-05-07 18:04 | 48.27151 | 16.49782 | 2663 ft | 236 kts | 182° |
| 2026-05-07 18:04 | 48.25600 | 16.50587 | 2543 ft | 239 kts | 143° |
| 2026-05-07 18:04 | 48.24498 | 16.52453 | 2499 ft | 233 kts | 138° |
| 2026-05-07 18:04 | 48.23166 | 16.53392 | 2475 ft | 200 kts | 174° |
| 2026-05-07 18:05 | 48.21851 | 16.53683 | 2489 ft | 183 kts | 171° |
| 2026-05-07 18:05 | 48.20698 | 16.54164 | 2378 ft | 162 kts | 167° |
| 2026-05-07 18:05 | 48.19643 | 16.54600 | 2124 ft | 149 kts | 169° |
| 2026-05-07 18:05 | 48.18689 | 16.54980 | 1975 ft | 141 kts | 169° |
| 2026-05-07 18:06 | 48.17738 | 16.55366 | 1783 ft | 136 kts | 168° |
| 2026-05-07 18:06 | 48.16834 | 16.55750 | 1607 ft | 132 kts | 169° |
| 2026-05-07 18:06 | 48.15941 | 16.56122 | 1436 ft | 133 kts | 169° |
| 2026-05-07 18:06 | 48.15044 | 16.56505 | 1260 ft | 133 kts | 169° |
| 2026-05-07 18:07 | 48.14147 | 16.56891 | 1079 ft | 133 kts | 168° |
| 2026-05-07 18:07 | 48.13266 | 16.57281 | 914 ft | 131 kts | 169° |
| 2026-05-07 18:07 | 48.12384 | 16.57653 | 728 ft | 131 kts | 169° |
| 2026-05-07 18:07 | 48.11500 | 16.58022 | 607 ft | 127 kts | 168° |
| 2026-05-07 18:08 | 48.10856 | 16.58295 | 611 ft | 72 kts | 165° |
| 2026-05-07 18:08 | 48.10483 | 16.58454 | 614 ft | 32 kts | 165° |
| 2026-05-07 18:08 | 48.10308 | 16.58457 | 614 ft | 18 kts | 189° |
| 2026-05-07 18:08 | 48.10210 | 16.58428 | 615 ft | 11 kts | 193° |
| 2026-05-07 18:09 | 48.10139 | 16.58383 | 616 ft | 12 kts | 237° |
| 2026-05-07 18:09 | 48.10188 | 16.58295 | 616 ft | 17 kts | 345° |
| 2026-05-07 18:09 | 48.10322 | 16.58238 | 615 ft | 23 kts | 344° |
| 2026-05-07 18:09 | 48.10490 | 16.58167 | 615 ft | 24 kts | 343° |
| 2026-05-07 18:10 | 48.10662 | 16.58095 | 613 ft | 26 kts | 344° |
| 2026-05-07 18:10 | 48.10835 | 16.58021 | 612 ft | 23 kts | 344° |
| 2026-05-07 18:10 | 48.10992 | 16.57955 | 610 ft | 24 kts | 344° |
| 2026-05-07 18:10 | 48.11106 | 16.57868 | 609 ft | 16 kts | 304° |
| 2026-05-07 18:11 | 48.11161 | 16.57705 | 609 ft | 20 kts | 295° |
| 2026-05-07 18:11 | 48.11204 | 16.57574 | 609 ft | 22 kts | 296° |
| 2026-05-07 18:11 | 48.11290 | 16.57337 | 608 ft | 13 kts | 332° |
| 2026-05-07 18:11 | 48.11384 | 16.57383 | 607 ft | 14 kts | 26° |
| 2026-05-07 18:12 | 48.11452 | 16.57310 | 606 ft | 15 kts | 296° |
| 2026-05-07 18:12 | 48.11453 | 16.57222 | 606 ft | 7 kts | 208° |
| 2026-05-07 18:12 | 48.11415 | 16.57196 | 606 ft | 3 kts | 206° |
| 2026-05-07 18:12 | 48.11409 | 16.57192 | 606 ft | 0 kts | 207° |